Time;durP1;ratioP1;P1;durP2;ratioP2;P2;SDS_P1;SDS_P2;PMS_P1;PMS_P2;Temp;Humidity;BMP_temperature;BMP_pressure;BME280_temperature;BME280_humidity;BME280_pressure;Samples;Min_cycle;Max_cycle;Signal;HPM_P1;HPM_P2
2022/04/25 00:00:48;;;;;;;9.87;7.77;;;;;;;;;;5063444;28;20285;-52
2022/04/25 00:03:13;;;;;;;8.27;7.47;;;;;;;;;;5068625;28;20195;-53
2022/04/25 00:05:39;;;;;;;9.27;8.37;;;;;;;;;;5071162;28;20197;-52
2022/04/25 00:08:05;;;;;;;8.10;7.30;;;;;;;;;;5072069;28;20215;-52
2022/04/25 00:10:32;;;;;;;8.73;7.53;;;;;;;;;;5070645;28;20202;-52
2022/04/25 00:12:58;;;;;;;8.43;7.57;;;;;;;;;;5079011;28;20224;-52
2022/04/25 00:15:27;;;;;;;8.63;7.77;;;;;;;;;;5074667;28;20199;-52
2022/04/25 00:17:53;;;;;;;8.40;7.23;;;;;;;;;;5070123;28;20267;-52
2022/04/25 00:20:18;;;;;;;6.83;6.23;;;;;;;;;;5069030;28;20208;-52
2022/04/25 00:22:46;;;;;;;6.80;6.20;;;;;;;;;;5076262;28;20191;-52
2022/04/25 00:25:12;;;;;;;6.37;5.77;;;;;;;;;;5077752;28;20183;-52
2022/04/25 00:27:38;;;;;;;6.07;5.57;;;;;;;;;;5073433;28;20201;-53
2022/04/25 00:30:04;;;;;;;6.47;5.87;;;;;;;;;;5078775;28;20664;-53
2022/04/25 00:32:30;;;;;;;6.53;5.87;;;;;;;;;;5067263;28;20191;-52
2022/04/25 00:34:56;;;;;;;5.47;4.93;;;;;;;;;;5069061;28;20542;-52
2022/04/25 00:37:22;;;;;;;5.27;4.70;;;;;;;;;;5076004;28;20256;-52
2022/04/25 00:39:48;;;;;;;5.47;4.57;;;;;;;;;;5075771;28;20318;-52
2022/04/25 00:42:14;;;;;;;5.07;4.67;;;;;;;;;;5073217;28;20183;-52
2022/04/25 00:44:41;;;;;;;4.10;3.70;;;;;;;;;;5077471;28;20226;-52
2022/04/25 00:47:07;;;;;;;4.33;3.93;;;;;;;;;;5079925;28;20198;-52
2022/04/25 00:49:33;;;;;;;4.40;4.00;;;;;;;;;;5072702;28;20223;-52
2022/04/25 00:51:59;;;;;;;5.83;4.37;;;;;;;;;;5069506;28;20195;-53
2022/04/25 00:54:25;;;;;;;3.70;3.40;;;;;;;;;;5068014;28;20345;-52
2022/04/25 00:56:51;;;;;;;3.83;3.53;;;;;;;;;;5077048;28;20829;-53
2022/04/25 00:59:18;;;;;;;4.03;3.60;;;;;;;;;;5077118;28;20713;-52
2022/04/25 01:01:44;;;;;;;3.60;3.30;;;;;;;;;;5075380;28;20691;-52
2022/04/25 01:04:10;;;;;;;3.87;3.57;;;;;;;;;;5076418;28;20267;-52
2022/04/25 01:06:36;;;;;;;3.50;3.20;;;;;;;;;;5077214;28;20218;-53
2022/04/25 01:09:02;;;;;;;3.30;2.90;;;;;;;;;;5077446;28;20187;-53
2022/04/25 01:11:28;;;;;;;2.90;2.70;;;;;;;;;;5074475;28;20203;-53
2022/04/25 01:13:54;;;;;;;3.50;3.20;;;;;;;;;;5078996;28;20191;-53
2022/04/25 01:16:20;;;;;;;3.13;2.93;;;;;;;;;;5073689;28;20194;-53
2022/04/25 01:18:46;;;;;;;3.73;3.33;;;;;;;;;;5072205;28;20857;-53
2022/04/25 01:21:13;;;;;;;3.60;3.30;;;;;;;;;;5058174;28;21213;-52
2022/04/25 01:29:09;;;;;;;3.20;2.90;;;;;;;;;;5075680;28;20194;-53
2022/04/25 01:31:35;;;;;;;2.97;2.77;;;;;;;;;;5071399;28;20656;-52
2022/04/25 01:34:01;;;;;;;3.53;3.23;;;;;;;;;;5075101;28;20704;-52
2022/04/25 01:36:27;;;;;;;4.03;3.27;;;;;;;;;;5075527;28;20184;-52
2022/04/25 01:38:53;;;;;;;3.57;3.23;;;;;;;;;;5079404;28;20198;-52
2022/04/25 01:41:19;;;;;;;3.23;2.97;;;;;;;;;;5074600;28;20218;-52
2022/04/25 01:43:45;;;;;;;3.43;3.13;;;;;;;;;;5073103;28;20190;-52
2022/04/25 01:46:11;;;;;;;3.10;2.90;;;;;;;;;;5066608;28;20211;-53
2022/04/25 01:48:37;;;;;;;3.33;3.03;;;;;;;;;;5064028;28;20722;-53
2022/04/25 01:51:03;;;;;;;3.80;3.50;;;;;;;;;;5072005;28;20191;-52
2022/04/25 01:53:32;;;;;;;3.50;3.20;;;;;;;;;;5069487;28;20186;-53
2022/04/25 01:55:58;;;;;;;3.90;3.50;;;;;;;;;;5074442;28;20199;-52
2022/04/25 01:58:25;;;;;;;4.10;3.70;;;;;;;;;;5072160;28;20732;-53
2022/04/25 02:00:50;;;;;;;4.30;3.70;;;;;;;;;;5073364;28;20218;-52
2022/04/25 02:03:16;;;;;;;4.57;3.60;;;;;;;;;;5072832;28;20190;-51
2022/04/25 02:05:42;;;;;;;4.17;3.87;;;;;;;;;;5074423;28;20199;-52
2022/04/25 02:08:08;;;;;;;4.30;3.60;;;;;;;;;;5076286;28;20719;-52
2022/04/25 02:10:34;;;;;;;4.10;3.80;;;;;;;;;;5071604;28;20665;-52
2022/04/25 02:13:01;;;;;;;3.53;3.23;;;;;;;;;;5080161;28;20187;-53
2022/04/25 02:15:27;;;;;;;3.80;3.50;;;;;;;;;;5073713;28;20644;-53
2022/04/25 02:17:52;;;;;;;4.10;3.70;;;;;;;;;;5072721;28;21090;-52
2022/04/25 02:20:18;;;;;;;4.60;3.57;;;;;;;;;;5067501;28;20208;-52
2022/04/25 02:22:45;;;;;;;4.17;3.77;;;;;;;;;;5072732;28;20203;-53
2022/04/25 02:25:11;;;;;;;4.30;3.80;;;;;;;;;;5067705;28;20961;-52
2022/04/25 02:27:37;;;;;;;3.97;3.67;;;;;;;;;;5073043;28;20208;-52
2022/04/25 02:30:04;;;;;;;4.47;3.77;;;;;;;;;;5071118;28;20637;-52
2022/04/25 02:32:30;;;;;;;4.10;3.70;;;;;;;;;;5069206;28;20190;-52
2022/04/25 02:34:56;;;;;;;4.30;3.90;;;;;;;;;;5072210;28;20210;-52
2022/04/25 02:37:22;;;;;;;4.17;3.87;;;;;;;;;;5067814;28;20856;-52
2022/04/25 02:39:48;;;;;;;4.67;4.27;;;;;;;;;;5069509;28;20234;-52
2022/04/25 02:42:14;;;;;;;4.70;4.20;;;;;;;;;;5065955;28;21039;-53
2022/04/25 02:44:40;;;;;;;4.57;3.90;;;;;;;;;;5069088;28;20179;-53
2022/04/25 02:47:06;;;;;;;5.33;4.00;;;;;;;;;;5074921;28;20240;-52
2022/04/25 02:49:32;;;;;;;6.03;4.43;;;;;;;;;;5078036;28;20222;-52
2022/04/25 02:51:58;;;;;;;4.33;3.97;;;;;;;;;;5075371;28;20652;-52
2022/04/25 02:54:24;;;;;;;5.50;4.03;;;;;;;;;;5074928;28;20195;-53
2022/04/25 02:56:50;;;;;;;4.93;4.53;;;;;;;;;;5074041;28;20189;-53
2022/04/25 02:59:16;;;;;;;4.93;4.43;;;;;;;;;;5076615;28;20225;-53
2022/04/25 03:01:42;;;;;;;5.03;4.17;;;;;;;;;;5074390;28;20340;-53
2022/04/25 03:04:08;;;;;;;4.47;4.07;;;;;;;;;;5074779;28;21660;-53
2022/04/25 03:06:34;;;;;;;4.93;4.43;;;;;;;;;;5070664;28;20208;-53
2022/04/25 03:09:01;;;;;;;5.57;4.87;;;;;;;;;;5074006;28;20262;-53
2022/04/25 03:11:26;;;;;;;5.40;4.90;;;;;;;;;;5078560;28;20641;-53
2022/04/25 03:13:53;;;;;;;4.53;4.13;;;;;;;;;;5073589;28;20201;-53
2022/04/25 03:16:19;;;;;;;5.70;5.20;;;;;;;;;;5080559;28;20289;-53
2022/04/25 03:18:45;;;;;;;5.37;4.90;;;;;;;;;;5075871;28;20280;-52
2022/04/25 03:21:11;;;;;;;5.00;4.60;;;;;;;;;;5078115;28;20296;-53
2022/04/25 03:23:37;;;;;;;5.20;4.70;;;;;;;;;;5080780;28;20191;-53
2022/04/25 03:26:03;;;;;;;5.43;4.70;;;;;;;;;;5083327;28;20202;-53
2022/04/25 03:28:29;;;;;;;5.40;4.80;;;;;;;;;;5076785;28;20291;-53
2022/04/25 03:30:55;;;;;;;4.77;4.37;;;;;;;;;;5072497;28;21095;-52
2022/04/25 03:33:21;;;;;;;5.23;4.73;;;;;;;;;;5077147;28;20199;-53
2022/04/25 03:35:47;;;;;;;5.30;4.80;;;;;;;;;;5075317;28;20187;-53
2022/04/25 03:38:13;;;;;;;5.40;5.00;;;;;;;;;;5071430;28;20195;-53
2022/04/25 03:40:39;;;;;;;5.80;5.20;;;;;;;;;;5072045;28;20316;-53
2022/04/25 03:43:06;;;;;;;4.97;4.57;;;;;;;;;;5078254;28;20187;-53
2022/04/25 03:45:32;;;;;;;5.60;5.10;;;;;;;;;;5072373;28;20172;-53
2022/04/25 03:47:58;;;;;;;5.80;5.20;;;;;;;;;;5077634;28;20175;-53
2022/04/25 03:50:24;;;;;;;7.27;5.30;;;;;;;;;;5077306;28;20816;-53
2022/04/25 03:52:50;;;;;;;6.37;5.77;;;;;;;;;;5077425;28;20194;-53
2022/04/25 03:58:02;;;;;;;6.03;5.53;;;;;;;;;;5068451;28;20614;-53
2022/04/25 04:00:28;;;;;;;6.53;5.50;;;;;;;;;;5070600;28;20206;-52
2022/04/25 04:02:54;;;;;;;6.50;5.70;;;;;;;;;;5073413;28;20179;-52
2022/04/25 04:05:20;;;;;;;5.97;5.43;;;;;;;;;;5076852;28;20620;-53
2022/04/25 04:07:46;;;;;;;6.57;6.00;;;;;;;;;;5075901;28;20207;-53
2022/04/25 04:10:12;;;;;;;6.70;6.10;;;;;;;;;;5075013;28;20673;-53
2022/04/25 04:12:38;;;;;;;6.70;6.07;;;;;;;;;;5073578;28;20588;-52
2022/04/25 04:15:05;;;;;;;6.43;5.93;;;;;;;;;;5079434;28;20191;-53
2022/04/25 04:17:31;;;;;;;6.57;5.93;;;;;;;;;;5069130;28;20275;-52
2022/04/25 04:19:57;;;;;;;7.03;6.43;;;;;;;;;;5074242;28;20261;-53
2022/04/25 04:22:25;;;;;;;6.70;6.10;;;;;;;;;;5074062;28;21129;-53
2022/04/25 04:24:51;;;;;;;6.53;5.93;;;;;;;;;;5074246;28;20191;-53
2022/04/25 04:27:17;;;;;;;6.50;6.00;;;;;;;;;;5071583;28;20194;-53
2022/04/25 04:29:44;;;;;;;7.40;6.70;;;;;;;;;;5058297;28;20274;-53
2022/04/25 04:32:10;;;;;;;7.70;7.00;;;;;;;;;;5066290;28;20302;-53
2022/04/25 04:34:36;;;;;;;7.93;7.23;;;;;;;;;;5066504;28;20284;-53
2022/04/25 04:37:02;;;;;;;8.83;7.53;;;;;;;;;;5067340;28;20206;-52
2022/04/25 04:39:28;;;;;;;7.90;7.20;;;;;;;;;;5076455;28;20280;-52
2022/04/25 04:41:54;;;;;;;7.03;6.43;;;;;;;;;;5070859;28;20211;-53
2022/04/25 04:44:20;;;;;;;7.30;6.60;;;;;;;;;;5071902;28;20191;-53
2022/04/25 04:46:47;;;;;;;7.70;7.00;;;;;;;;;;5074052;28;20174;-53
2022/04/25 04:49:13;;;;;;;9.33;8.47;;;;;;;;;;5071886;28;20179;-53
2022/04/25 04:51:39;;;;;;;7.57;6.87;;;;;;;;;;5067443;28;20210;-52
2022/04/25 04:54:05;;;;;;;7.60;6.90;;;;;;;;;;5069561;28;20202;-52
2022/04/25 04:56:31;;;;;;;7.70;7.00;;;;;;;;;;5061026;28;20222;-53
2022/04/25 04:58:58;;;;;;;7.77;6.97;;;;;;;;;;5067350;28;20468;-53
2022/04/25 05:01:24;;;;;;;7.37;6.47;;;;;;;;;;5073021;28;20623;-52
2022/04/25 05:03:50;;;;;;;7.13;6.53;;;;;;;;;;5067162;28;20194;-53
2022/04/25 05:06:16;;;;;;;7.27;6.57;;;;;;;;;;5073317;28;20178;-52
2022/04/25 05:08:42;;;;;;;9.00;6.93;;;;;;;;;;5064059;28;20191;-52
2022/04/25 05:11:09;;;;;;;7.93;6.87;;;;;;;;;;5060463;28;20202;-52
2022/04/25 05:13:36;;;;;;;10.23;9.27;;;;;;;;;;5056516;28;20296;-54
2022/04/25 05:16:02;;;;;;;10.27;9.27;;;;;;;;;;5057802;28;20205;-54
2022/04/25 05:18:32;;;;;;;11.10;9.30;;;;;;;;;;5065402;28;20214;-53
2022/04/25 05:20:58;;;;;;;10.60;9.70;;;;;;;;;;5070039;28;20681;-54
2022/04/25 05:23:24;;;;;;;11.00;9.90;;;;;;;;;;5065027;28;21418;-53
2022/04/25 05:25:49;;;;;;;11.07;10.07;;;;;;;;;;5069659;28;20774;-54
2022/04/25 05:28:15;;;;;;;10.90;9.63;;;;;;;;;;5059994;28;20183;-53
2022/04/25 05:30:43;;;;;;;11.37;10.37;;;;;;;;;;5066761;28;20266;-54
2022/04/25 05:33:09;;;;;;;10.50;9.60;;;;;;;;;;5072058;28;20192;-54
2022/04/25 05:35:35;;;;;;;12.63;9.70;;;;;;;;;;5065419;28;20563;-54
2022/04/25 05:38:01;;;;;;;10.07;9.17;;;;;;;;;;5065205;28;20334;-54
2022/04/25 05:40:27;;;;;;;9.70;8.80;;;;;;;;;;5067997;28;20768;-54
2022/04/25 05:42:53;;;;;;;10.30;9.37;;;;;;;;;;5066571;28;20184;-53
2022/04/25 05:45:22;;;;;;;10.83;9.73;;;;;;;;;;5071497;28;20266;-54
2022/04/25 05:47:48;;;;;;;10.87;9.60;;;;;;;;;;5064151;28;20621;-54
2022/04/25 05:53:00;;;;;;;9.60;8.70;;;;;;;;;;5065370;28;20256;-54
2022/04/25 05:55:26;;;;;;;10.63;9.73;;;;;;;;;;5062775;28;20697;-54
2022/04/25 05:57:52;;;;;;;10.13;9.13;;;;;;;;;;5060714;28;20198;-54
2022/04/25 06:00:18;;;;;;;10.63;9.13;;;;;;;;;;5058299;28;20252;-54
2022/04/25 06:02:44;;;;;;;11.10;10.00;;;;;;;;;;5058491;28;20210;-53
2022/04/25 06:05:11;;;;;;;10.97;9.67;;;;;;;;;;5064749;28;20183;-53
2022/04/25 06:07:37;;;;;;;10.37;9.37;;;;;;;;;;5059433;28;20269;-53
2022/04/25 06:10:04;;;;;;;10.33;9.37;;;;;;;;;;5060190;28;20192;-54
2022/04/25 06:12:30;;;;;;;10.07;9.17;;;;;;;;;;5065279;28;20278;-54
2022/04/25 06:14:56;;;;;;;10.90;9.87;;;;;;;;;;5057503;28;20187;-54
2022/04/25 06:17:22;;;;;;;10.03;9.13;;;;;;;;;;5066240;28;20188;-55
2022/04/25 06:19:48;;;;;;;9.67;8.77;;;;;;;;;;5061732;28;20585;-54
2022/04/25 06:22:14;;;;;;;10.33;9.23;;;;;;;;;;5066335;28;20190;-54
2022/04/25 06:24:40;;;;;;;10.00;8.73;;;;;;;;;;5072448;28;21184;-54
2022/04/25 06:27:09;;;;;;;10.10;8.90;;;;;;;;;;5063741;28;20278;-54
2022/04/25 06:29:35;;;;;;;8.50;7.77;;;;;;;;;;5066660;28;20479;-54
2022/04/25 06:32:05;;;;;;;9.30;8.40;;;;;;;;;;5067878;28;20222;-54
2022/04/25 06:34:31;;;;;;;9.07;8.27;;;;;;;;;;5067146;28;20203;-54
2022/04/25 06:36:57;;;;;;;9.43;8.47;;;;;;;;;;5063422;28;20823;-53
2022/04/25 06:39:22;;;;;;;9.17;8.27;;;;;;;;;;5063943;28;20671;-54
2022/04/25 06:41:48;;;;;;;9.47;8.47;;;;;;;;;;5064928;28;20191;-54
2022/04/25 06:44:14;;;;;;;8.97;8.20;;;;;;;;;;5064661;28;20184;-54
2022/04/25 06:46:40;;;;;;;9.10;8.30;;;;;;;;;;5067891;28;20187;-54
2022/04/25 06:49:25;;;;;;;9.97;8.97;;;;;;;;;;5066710;28;20195;-54
2022/04/25 06:51:52;;;;;;;10.07;8.33;;;;;;;;;;5063800;28;20172;-54
2022/04/25 06:54:18;;;;;;;9.37;8.47;;;;;;;;;;5065629;28;20179;-54
2022/04/25 06:56:44;;;;;;;9.80;8.90;;;;;;;;;;5063236;28;20195;-54
2022/04/25 06:59:10;;;;;;;9.47;8.47;;;;;;;;;;5067469;28;20762;-54
2022/04/25 07:01:36;;;;;;;9.57;8.67;;;;;;;;;;5072459;28;20761;-54
2022/04/25 07:04:02;;;;;;;8.50;7.80;;;;;;;;;;5072580;28;20767;-54
2022/04/25 07:06:28;;;;;;;9.07;8.23;;;;;;;;;;5073447;28;20210;-54
2022/04/25 07:08:55;;;;;;;9.60;8.77;;;;;;;;;;5069181;28;20522;-54
2022/04/25 07:11:21;;;;;;;9.80;8.60;;;;;;;;;;5073789;28;20183;-54
2022/04/25 07:13:47;;;;;;;9.90;9.00;;;;;;;;;;5073668;28;20194;-54
2022/04/25 07:16:13;;;;;;;9.83;8.80;;;;;;;;;;5073777;28;20186;-54
2022/04/25 07:18:39;;;;;;;10.03;9.10;;;;;;;;;;5071572;28;20195;-54
2022/04/25 07:29:20;;;;;;;10.23;9.23;;;;;;;;;;5071950;28;20202;-54
2022/04/25 07:31:47;;;;;;;10.13;9.23;;;;;;;;;;5063082;28;20207;-54
2022/04/25 07:34:13;;;;;;;10.27;9.27;;;;;;;;;;5071571;28;21530;-54
2022/04/25 07:36:39;;;;;;;10.73;9.73;;;;;;;;;;5066450;28;20266;-54
2022/04/25 07:39:05;;;;;;;11.03;9.93;;;;;;;;;;5069113;28;20240;-54
2022/04/25 07:41:31;;;;;;;10.90;9.80;;;;;;;;;;5071158;28;20284;-54
2022/04/25 07:43:58;;;;;;;11.53;10.33;;;;;;;;;;5070976;28;20183;-54
2022/04/25 07:46:25;;;;;;;12.77;11.57;;;;;;;;;;5072222;28;20298;-54
2022/04/25 07:48:51;;;;;;;12.57;11.37;;;;;;;;;;5069140;28;20776;-54
2022/04/25 07:51:17;;;;;;;12.00;10.90;;;;;;;;;;5075128;28;20235;-54
2022/04/25 07:53:43;;;;;;;10.40;9.43;;;;;;;;;;5072332;28;20642;-54
2022/04/25 07:56:09;;;;;;;12.03;10.93;;;;;;;;;;5071033;28;20204;-54
2022/04/25 07:58:35;;;;;;;11.30;10.30;;;;;;;;;;5066144;28;20195;-54
2022/04/25 08:01:02;;;;;;;10.53;9.63;;;;;;;;;;5069083;28;20290;-55
2022/04/25 08:03:28;;;;;;;10.63;9.70;;;;;;;;;;5064807;28;20529;-54
2022/04/25 08:05:54;;;;;;;10.30;9.13;;;;;;;;;;5061753;28;20188;-55
2022/04/25 08:08:20;;;;;;;10.13;9.33;;;;;;;;;;5065801;28;20675;-55
2022/04/25 08:10:46;;;;;;;10.13;9.10;;;;;;;;;;5059078;28;20243;-54
2022/04/25 08:18:41;;;;;;;10.87;9.90;;;;;;;;;;5068592;28;20911;-53
2022/04/25 08:21:07;;;;;;;10.63;9.73;;;;;;;;;;5067512;28;20428;-54
2022/04/25 08:23:33;;;;;;;13.10;9.90;;;;;;;;;;5064707;28;20183;-54
2022/04/25 08:25:59;;;;;;;10.30;9.30;;;;;;;;;;5063101;28;20878;-54
2022/04/25 08:28:25;;;;;;;9.40;8.60;;;;;;;;;;5066710;28;20629;-54
2022/04/25 08:30:52;;;;;;;9.77;8.77;;;;;;;;;;5065032;28;20720;-55
2022/04/25 08:33:19;;;;;;;10.00;9.10;;;;;;;;;;5060652;28;20243;-54
2022/04/25 08:35:45;;;;;;;10.33;9.40;;;;;;;;;;5064559;28;20191;-54
2022/04/25 08:38:11;;;;;;;11.13;10.07;;;;;;;;;;5065567;28;20317;-54
2022/04/25 08:40:37;;;;;;;10.23;9.23;;;;;;;;;;5057802;28;20235;-54
2022/04/25 08:43:04;;;;;;;10.60;9.63;;;;;;;;;;5062463;28;20183;-55
2022/04/25 08:45:29;;;;;;;10.93;9.97;;;;;;;;;;5057405;28;20190;-54
2022/04/25 08:47:59;;;;;;;9.83;8.83;;;;;;;;;;5061176;28;20604;-54
2022/04/25 08:50:26;;;;;;;8.60;7.80;;;;;;;;;;5065437;28;20183;-54
2022/04/25 08:52:52;;;;;;;8.73;7.87;;;;;;;;;;5062855;28;20199;-55
2022/04/25 08:55:18;;;;;;;8.83;7.40;;;;;;;;;;5063835;28;20183;-54
2022/04/25 08:57:45;;;;;;;8.00;7.30;;;;;;;;;;5067213;28;20256;-54
2022/04/25 09:00:11;;;;;;;7.63;6.93;;;;;;;;;;5067971;28;20231;-54
2022/04/25 09:02:40;;;;;;;6.87;6.27;;;;;;;;;;5067247;28;20221;-54
2022/04/25 09:05:09;;;;;;;8.13;7.37;;;;;;;;;;5067043;28;20176;-53
2022/04/25 09:07:37;;;;;;;6.97;6.37;;;;;;;;;;5068826;28;20198;-53
2022/04/25 09:10:03;;;;;;;6.40;5.80;;;;;;;;;;5064089;28;20183;-54
2022/04/25 09:12:29;;;;;;;7.20;6.53;;;;;;;;;;5067099;28;20496;-54
2022/04/25 09:14:56;;;;;;;6.47;5.83;;;;;;;;;;5069682;28;20273;-54
2022/04/25 09:17:22;;;;;;;7.37;6.67;;;;;;;;;;5066120;28;20191;-54
2022/04/25 09:19:48;;;;;;;7.10;6.50;;;;;;;;;;5063990;28;20191;-54
2022/04/25 09:22:15;;;;;;;7.60;6.30;;;;;;;;;;5066341;28;20716;-54
2022/04/25 09:24:45;;;;;;;7.40;6.37;;;;;;;;;;5062933;28;20179;-54
2022/04/25 09:27:11;;;;;;;6.57;5.77;;;;;;;;;;5068997;28;20219;-54
2022/04/25 09:29:38;;;;;;;10.03;6.93;;;;;;;;;;5072063;28;20548;-54
2022/04/25 09:32:04;;;;;;;7.30;6.60;;;;;;;;;;5057292;28;20191;-54
2022/04/25 09:37:15;;;;;;;6.67;6.17;;;;;;;;;;5064868;28;20707;-55
2022/04/25 09:39:41;;;;;;;8.07;7.20;;;;;;;;;;5071694;28;20695;-54
2022/04/25 09:42:07;;;;;;;7.87;7.23;;;;;;;;;;5066460;28;20183;-54
2022/04/25 09:44:52;;;;;;;8.57;7.87;;;;;;;;;;5067112;28;20191;-54
2022/04/25 09:47:25;;;;;;;7.93;7.23;;;;;;;;;;5065825;28;20668;-54
2022/04/25 09:50:04;;;;;;;8.70;7.90;;;;;;;;;;5070336;28;20269;-54
2022/04/25 09:52:31;;;;;;;8.57;7.83;;;;;;;;;;5061345;28;20190;-54
2022/04/25 09:54:58;;;;;;;10.13;8.90;;;;;;;;;;5064099;28;20286;-54
2022/04/25 09:57:33;;;;;;;8.33;7.53;;;;;;;;;;5064601;28;20457;-55
2022/04/25 09:59:59;;;;;;;10.03;9.03;;;;;;;;;;5069753;28;20579;-55
2022/04/25 10:02:26;;;;;;;11.00;9.30;;;;;;;;;;5072320;28;20191;-55
2022/04/25 10:04:52;;;;;;;10.97;9.87;;;;;;;;;;5065560;28;20669;-55
2022/04/25 10:07:18;;;;;;;12.13;10.40;;;;;;;;;;5064371;28;20203;-55
2022/04/25 10:09:45;;;;;;;10.63;9.63;;;;;;;;;;5064002;28;20284;-52
2022/04/25 10:12:11;;;;;;;10.93;9.77;;;;;;;;;;5069300;28;20202;-52
2022/04/25 10:14:37;;;;;;;10.30;7.57;;;;;;;;;;5067127;28;20273;-52
2022/04/25 10:17:03;;;;;;;8.57;6.90;;;;;;;;;;5063761;28;20183;-52
2022/04/25 10:19:30;;;;;;;8.30;7.55;;;;;;;;;;5068659;28;20192;-52
2022/04/25 10:21:56;;;;;;;7.60;6.93;;;;;;;;;;5060512;28;20199;-52
2022/04/25 10:24:22;;;;;;;7.90;7.20;;;;;;;;;;5067110;28;20180;-52
2022/04/25 10:26:48;;;;;;;6.97;6.38;;;;;;;;;;5069656;28;20192;-53
2022/04/25 10:29:16;;;;;;;7.13;6.43;;;;;;;;;;5066894;28;20190;-53
2022/04/25 10:31:42;;;;;;;7.63;5.90;;;;;;;;;;5066037;28;20868;-53
2022/04/25 10:34:09;;;;;;;7.18;6.45;;;;;;;;;;5070042;28;20786;-52
2022/04/25 10:36:38;;;;;;;6.00;5.47;;;;;;;;;;5075653;28;20209;-52
2022/04/25 10:39:11;;;;;;;5.70;5.30;;;;;;;;;;5063238;28;20191;-52
2022/04/25 10:44:21;;;;;;;5.90;5.38;;;;;;;;;;5072972;28;20214;-53
2022/04/25 10:47:06;;;;;;;5.70;5.15;;;;;;;;;;5076607;28;20187;-53
2022/04/25 10:49:32;;;;;;;7.45;5.47;;;;;;;;;;5071920;28;20184;-52
2022/04/25 10:51:59;;;;;;;5.45;5.05;;;;;;;;;;5066817;28;20192;-53
2022/04/25 10:54:28;;;;;;;7.13;6.43;;;;;;;;;;5063759;28;20246;-52
2022/04/25 10:57:10;;;;;;;7.47;6.78;;;;;;;;;;5064057;28;20172;-52
2022/04/25 10:59:37;;;;;;;11.48;10.38;;;;;;;;;;5066324;28;20218;-52
2022/04/25 11:02:20;;;;;;;12.20;11.10;;;;;;;;;;5066215;28;20272;-53
2022/04/25 11:04:46;;;;;;;14.27;12.95;;;;;;;;;;5065044;28;20187;-52
2022/04/25 11:07:22;;;;;;;14.23;13.00;;;;;;;;;;5063216;28;20750;-53
2022/04/25 11:09:48;;;;;;;14.57;13.07;;;;;;;;;;5064403;28;20176;-52
2022/04/25 11:12:14;;;;;;;15.00;13.50;;;;;;;;;;5064072;28;20210;-52
2022/04/25 11:14:56;;;;;;;13.83;12.53;;;;;;;;;;5067987;28;20183;-52
2022/04/25 11:17:22;;;;;;;15.10;13.10;;;;;;;;;;5062125;28;20191;-52
2022/04/25 11:19:51;;;;;;;13.50;12.20;;;;;;;;;;5065395;28;20199;-52
2022/04/25 11:22:35;;;;;;;14.10;12.47;;;;;;;;;;5063896;28;20183;-52
2022/04/25 11:25:20;;;;;;;11.83;10.73;;;;;;;;;;5065398;28;21465;-52
2022/04/25 11:28:03;;;;;;;11.30;10.20;;;;;;;;;;5063808;28;20451;-52
2022/04/25 11:30:29;;;;;;;12.23;10.93;;;;;;;;;;5054740;28;20294;-52
2022/04/25 11:33:01;;;;;;;13.07;11.57;;;;;;;;;;5065183;28;20202;-51
2022/04/25 11:35:27;;;;;;;11.83;10.77;;;;;;;;;;5057182;28;20193;-53
2022/04/25 11:37:55;;;;;;;11.98;10.63;;;;;;;;;;5054888;28;20227;-52
2022/04/25 11:40:21;;;;;;;11.90;10.70;;;;;;;;;;5040716;28;20284;-53
2022/04/25 11:42:47;;;;;;;12.20;11.00;;;;;;;;;;5040653;28;20214;-52
2022/04/25 11:45:13;;;;;;;11.48;10.32;;;;;;;;;;5036574;28;20293;-52
2022/04/25 11:47:40;;;;;;;11.32;10.43;;;;;;;;;;5044073;28;20258;-53
2022/04/25 11:50:07;;;;;;;10.85;9.85;;;;;;;;;;5045552;28;20231;-53
2022/04/25 11:52:33;;;;;;;11.23;10.02;;;;;;;;;;5054730;28;21811;-53
2022/04/25 11:54:59;;;;;;;10.50;9.60;;;;;;;;;;5061037;28;20264;-53
2022/04/25 11:57:25;;;;;;;11.02;10.07;;;;;;;;;;5066100;28;20259;-53
2022/04/25 12:00:11;;;;;;;11.52;10.52;;;;;;;;;;5068770;28;20172;-52
2022/04/25 12:02:37;;;;;;;10.73;9.63;;;;;;;;;;5059770;28;20218;-53
2022/04/25 12:05:07;;;;;;;10.38;9.38;;;;;;;;;;5067926;28;20183;-53
2022/04/25 12:07:33;;;;;;;10.45;9.45;;;;;;;;;;5061893;28;20210;-52
2022/04/25 12:15:34;;;;;;;10.20;9.30;;;;;;;;;;5060411;28;20733;-53
2022/04/25 12:18:16;;;;;;;10.18;9.30;;;;;;;;;;5061815;28;20576;-53
2022/04/25 12:20:43;;;;;;;9.05;8.25;;;;;;;;;;5046847;28;20223;-52
2022/04/25 12:23:10;;;;;;;9.70;8.80;;;;;;;;;;5072510;28;20226;-52
2022/04/25 12:25:44;;;;;;;10.35;9.35;;;;;;;;;;5063727;28;20195;-53
2022/04/25 12:28:13;;;;;;;10.15;9.20;;;;;;;;;;5065971;28;20271;-53
2022/04/25 12:30:55;;;;;;;9.70;8.82;;;;;;;;;;5059726;28;20408;-52
2022/04/25 12:33:22;;;;;;;8.90;8.00;;;;;;;;;;5067611;28;20188;-52
2022/04/25 12:35:48;;;;;;;9.15;8.30;;;;;;;;;;5065055;28;20278;-52
2022/04/25 12:38:33;;;;;;;10.25;9.25;;;;;;;;;;5068007;28;20187;-51
2022/04/25 12:40:59;;;;;;;10.48;9.48;;;;;;;;;;5063758;28;20246;-53
2022/04/25 12:43:37;;;;;;;10.83;9.23;;;;;;;;;;5066919;28;20187;-53
2022/04/25 12:46:03;;;;;;;9.97;8.97;;;;;;;;;;5065932;28;20194;-52
2022/04/25 12:48:29;;;;;;;10.00;9.10;;;;;;;;;;5062990;28;20179;-53
2022/04/25 12:50:55;;;;;;;9.60;8.70;;;;;;;;;;5059439;28;20195;-52
2022/04/25 12:53:39;;;;;;;9.87;9.07;;;;;;;;;;5065625;28;20232;-52
2022/04/25 12:56:05;;;;;;;9.90;8.90;;;;;;;;;;5063612;28;20191;-52
2022/04/25 12:58:34;;;;;;;9.13;8.37;;;;;;;;;;5071568;28;20192;-53
2022/04/25 13:01:00;;;;;;;8.67;7.97;;;;;;;;;;5065621;28;20207;-54
2022/04/25 13:03:26;;;;;;;8.83;8.03;;;;;;;;;;5068257;28;20851;-53
2022/04/25 13:05:53;;;;;;;9.07;8.27;;;;;;;;;;5052844;28;21290;-52
2022/04/25 13:08:20;;;;;;;8.63;7.63;;;;;;;;;;5064785;28;20257;-53
2022/04/25 13:10:45;;;;;;;8.20;6.10;;;;;;;;;;5054297;28;20853;-53
2022/04/25 13:13:11;;;;;;;6.20;5.70;;;;;;;;;;5057695;28;20247;-52
2022/04/25 13:15:38;;;;;;;6.27;5.67;;;;;;;;;;5067971;28;20179;-52
2022/04/25 13:18:04;;;;;;;6.23;5.63;;;;;;;;;;5066757;28;20187;-52
2022/04/25 13:20:31;;;;;;;5.77;5.27;;;;;;;;;;5059592;28;20206;-51
2022/04/25 13:22:59;;;;;;;5.70;5.30;;;;;;;;;;5058132;28;20245;-52
2022/04/25 13:25:25;;;;;;;6.43;5.90;;;;;;;;;;5057109;28;20190;-52
2022/04/25 13:27:52;;;;;;;6.67;5.47;;;;;;;;;;5054454;28;20194;-52
2022/04/25 13:30:18;;;;;;;5.90;5.30;;;;;;;;;;5059917;28;20195;-53
2022/04/25 13:32:44;;;;;;;5.70;5.20;;;;;;;;;;5051072;28;20220;-52
2022/04/25 13:35:14;;;;;;;8.30;7.40;;;;;;;;;;5056670;28;20705;-53
2022/04/25 13:37:40;;;;;;;8.93;5.70;;;;;;;;;;5046734;28;20241;-52
2022/04/25 13:40:06;;;;;;;8.80;5.43;;;;;;;;;;5048196;28;20242;-52
2022/04/25 13:42:32;;;;;;;6.67;5.97;;;;;;;;;;5036534;28;20819;-53
2022/04/25 13:44:58;;;;;;;6.75;5.90;;;;;;;;;;5054966;28;20180;-52
2022/04/25 13:47:24;;;;;;;9.23;7.38;;;;;;;;;;5049269;28;20226;-55
2022/04/25 13:49:50;;;;;;;8.52;7.63;;;;;;;;;;5069537;28;20183;-55
2022/04/25 13:52:16;;;;;;;7.70;7.00;;;;;;;;;;5059455;28;20221;-55
2022/04/25 13:54:42;;;;;;;6.03;5.40;;;;;;;;;;5058031;28;20640;-55
2022/04/25 13:57:09;;;;;;;6.77;6.17;;;;;;;;;;5049977;28;20622;-55
2022/04/25 13:59:35;;;;;;;7.40;6.70;;;;;;;;;;5062781;28;20271;-55
2022/04/25 14:03:05;;;;;;;7.33;6.67;;;;;;;;;;5060349;28;20277;-55
2022/04/25 14:04:47;;;;;;;8.17;7.37;;;;;;;;;;5052050;28;20195;-56
2022/04/25 14:07:13;;;;;;;10.53;7.03;;;;;;;;;;5059007;28;20214;-55
2022/04/25 14:09:39;;;;;;;8.70;7.90;;;;;;;;;;5057900;28;20600;-56
2022/04/25 14:12:05;;;;;;;6.97;6.37;;;;;;;;;;5059014;28;20536;-55
2022/04/25 14:14:31;;;;;;;8.10;7.37;;;;;;;;;;5059208;28;20199;-55
2022/04/25 14:16:57;;;;;;;8.37;7.57;;;;;;;;;;5054087;28;20196;-56
2022/04/25 14:19:26;;;;;;;8.60;7.80;;;;;;;;;;5057405;28;20308;-55
2022/04/25 14:21:52;;;;;;;8.73;7.37;;;;;;;;;;5056068;28;20229;-56
2022/04/25 14:24:20;;;;;;;6.33;5.83;;;;;;;;;;5058565;28;20292;-56
2022/04/25 14:26:46;;;;;;;9.97;6.47;;;;;;;;;;5062161;28;20242;-55
2022/04/25 14:29:12;;;;;;;13.80;6.20;;;;;;;;;;5059881;28;20180;-56
2022/04/25 14:31:38;;;;;;;8.10;6.50;;;;;;;;;;5061532;28;20234;-56
2022/04/25 14:34:04;;;;;;;6.53;5.93;;;;;;;;;;5061423;28;20225;-56
2022/04/25 14:36:30;;;;;;;7.33;6.53;;;;;;;;;;5058128;28;20200;-55
2022/04/25 14:38:56;;;;;;;7.10;6.43;;;;;;;;;;5055481;28;20214;-55
2022/04/25 14:41:22;;;;;;;6.70;5.70;;;;;;;;;;5057672;28;20719;-55
2022/04/25 14:43:48;;;;;;;6.50;6.00;;;;;;;;;;5046145;28;20844;-55
2022/04/25 14:46:13;;;;;;;8.43;6.50;;;;;;;;;;5065103;28;20648;-55
2022/04/25 14:48:39;;;;;;;7.37;6.77;;;;;;;;;;5062016;28;20715;-56
2022/04/25 14:56:37;;;;;;;7.83;7.10;;;;;;;;;;5048889;28;20212;-56
2022/04/25 14:59:03;;;;;;;7.77;7.07;;;;;;;;;;5054686;28;20183;-56
2022/04/25 15:01:29;;;;;;;7.77;7.07;;;;;;;;;;5054240;28;20717;-55
2022/04/25 15:03:56;;;;;;;8.47;7.67;;;;;;;;;;5058587;28;20197;-55
2022/04/25 15:06:22;;;;;;;8.33;7.63;;;;;;;;;;5068679;28;20207;-55
2022/04/25 15:08:48;;;;;;;8.20;7.23;;;;;;;;;;5063364;28;20639;-55
2022/04/25 15:11:14;;;;;;;7.20;6.50;;;;;;;;;;5043310;28;20217;-55
2022/04/25 15:13:40;;;;;;;7.73;7.03;;;;;;;;;;5051936;28;20229;-55
2022/04/25 15:16:06;;;;;;;7.60;7.00;;;;;;;;;;5054897;28;20237;-55
2022/04/25 15:18:32;;;;;;;7.70;6.97;;;;;;;;;;5058123;28;21646;-55